sensor_id;sensor_type;location;lat;lon;timestamp;P1;durP1;ratioP1;P2;durP2;ratioP2
13349;SDS011;6744;53.190;6.576;2023-02-28T00:00:44;1.60;;;1.30;;
13349;SDS011;6744;53.190;6.576;2023-02-28T00:03:10;1.83;;;1.40;;
13349;SDS011;6744;53.190;6.576;2023-02-28T00:05:35;2.73;;;1.70;;
13349;SDS011;6744;53.190;6.576;2023-02-28T00:08:00;2.30;;;1.53;;
13349;SDS011;6744;53.190;6.576;2023-02-28T00:10:27;2.83;;;1.50;;
13349;SDS011;6744;53.190;6.576;2023-02-28T00:12:54;1.87;;;1.27;;
13349;SDS011;6744;53.190;6.576;2023-02-28T00:15:22;1.90;;;1.63;;
13349;SDS011;6744;53.190;6.576;2023-02-28T00:17:48;1.83;;;1.40;;
13349;SDS011;6744;53.190;6.576;2023-02-28T00:20:13;1.87;;;1.50;;
13349;SDS011;6744;53.190;6.576;2023-02-28T00:22:40;3.87;;;1.70;;
13349;SDS011;6744;53.190;6.576;2023-02-28T00:25:07;2.23;;;1.50;;
13349;SDS011;6744;53.190;6.576;2023-02-28T00:27:34;1.97;;;1.60;;
13349;SDS011;6744;53.190;6.576;2023-02-28T00:30:00;2.17;;;1.70;;
13349;SDS011;6744;53.190;6.576;2023-02-28T00:32:26;2.33;;;1.47;;
13349;SDS011;6744;53.190;6.576;2023-02-28T00:34:51;4.20;;;1.63;;
13349;SDS011;6744;53.190;6.576;2023-02-28T00:37:16;2.10;;;1.50;;
13349;SDS011;6744;53.190;6.576;2023-02-28T00:39:42;1.90;;;1.40;;
13349;SDS011;6744;53.190;6.576;2023-02-28T00:42:08;1.37;;;1.27;;
13349;SDS011;6744;53.190;6.576;2023-02-28T00:44:33;2.00;;;1.40;;
13349;SDS011;6744;53.190;6.576;2023-02-28T00:46:59;2.00;;;1.60;;
13349;SDS011;6744;53.190;6.576;2023-02-28T00:49:25;2.03;;;1.30;;
13349;SDS011;6744;53.190;6.576;2023-02-28T00:51:51;2.90;;;1.47;;
13349;SDS011;6744;53.190;6.576;2023-02-28T00:54:16;3.10;;;1.60;;
13349;SDS011;6744;53.190;6.576;2023-02-28T00:56:42;2.20;;;1.63;;
13349;SDS011;6744;53.190;6.576;2023-02-28T00:59:07;1.87;;;1.37;;
13349;SDS011;6744;53.190;6.576;2023-02-28T01:01:33;2.00;;;1.50;;
13349;SDS011;6744;53.190;6.576;2023-02-28T01:03:58;2.93;;;1.70;;
13349;SDS011;6744;53.190;6.576;2023-02-28T01:06:24;2.47;;;1.63;;
13349;SDS011;6744;53.190;6.576;2023-02-28T01:08:49;2.40;;;1.60;;
13349;SDS011;6744;53.190;6.576;2023-02-28T01:11:15;2.03;;;1.50;;
13349;SDS011;6744;53.190;6.576;2023-02-28T01:13:42;2.03;;;1.30;;
13349;SDS011;6744;53.190;6.576;2023-02-28T01:16:08;2.70;;;1.70;;
13349;SDS011;6744;53.190;6.576;2023-02-28T01:18:33;2.63;;;1.63;;
13349;SDS011;6744;53.190;6.576;2023-02-28T01:21:02;2.30;;;1.27;;
13349;SDS011;6744;53.190;6.576;2023-02-28T01:23:32;2.30;;;1.50;;
13349;SDS011;6744;53.190;6.576;2023-02-28T01:25:58;2.60;;;1.70;;
13349;SDS011;6744;53.190;6.576;2023-02-28T01:28:29;3.37;;;1.60;;
13349;SDS011;6744;53.190;6.576;2023-02-28T01:30:54;2.23;;;1.70;;
13349;SDS011;6744;53.190;6.576;2023-02-28T01:33:20;2.70;;;1.40;;
13349;SDS011;6744;53.190;6.576;2023-02-28T01:35:45;2.83;;;1.87;;
13349;SDS011;6744;53.190;6.576;2023-02-28T01:38:10;2.80;;;1.63;;
13349;SDS011;6744;53.190;6.576;2023-02-28T01:40:36;2.13;;;1.43;;
13349;SDS011;6744;53.190;6.576;2023-02-28T01:43:01;1.70;;;1.60;;
13349;SDS011;6744;53.190;6.576;2023-02-28T01:45:30;2.27;;;1.67;;
13349;SDS011;6744;53.190;6.576;2023-02-28T01:48:03;2.73;;;1.67;;
13349;SDS011;6744;53.190;6.576;2023-02-28T01:50:31;2.77;;;1.63;;
13349;SDS011;6744;53.190;6.576;2023-02-28T01:53:01;2.63;;;1.63;;
13349;SDS011;6744;53.190;6.576;2023-02-28T01:55:28;3.20;;;1.60;;
13349;SDS011;6744;53.190;6.576;2023-02-28T01:57:58;2.40;;;1.60;;
13349;SDS011;6744;53.190;6.576;2023-02-28T02:00:26;1.87;;;1.50;;
13349;SDS011;6744;53.190;6.576;2023-02-28T02:02:53;2.83;;;1.60;;
13349;SDS011;6744;53.190;6.576;2023-02-28T02:05:21;2.27;;;1.60;;
13349;SDS011;6744;53.190;6.576;2023-02-28T02:07:50;3.17;;;1.70;;
13349;SDS011;6744;53.190;6.576;2023-02-28T02:10:18;1.87;;;1.50;;
13349;SDS011;6744;53.190;6.576;2023-02-28T02:15:36;2.33;;;1.80;;
13349;SDS011;6744;53.190;6.576;2023-02-28T02:31:55;1.70;;;1.60;;
13349;SDS011;6744;53.190;6.576;2023-02-28T02:34:39;1.87;;;1.40;;
13349;SDS011;6744;53.190;6.576;2023-02-28T02:37:13;3.40;;;2.10;;
13349;SDS011;6744;53.190;6.576;2023-02-28T02:42:25;2.00;;;1.80;;
13349;SDS011;6744;53.190;6.576;2023-02-28T02:44:56;1.67;;;1.50;;
13349;SDS011;6744;53.190;6.576;2023-02-28T02:47:32;1.57;;;1.43;;
13349;SDS011;6744;53.190;6.576;2023-02-28T02:49:59;2.30;;;1.70;;
13349;SDS011;6744;53.190;6.576;2023-02-28T02:52:31;2.97;;;1.50;;
13349;SDS011;6744;53.190;6.576;2023-02-28T02:55:02;2.70;;;1.60;;
13349;SDS011;6744;53.190;6.576;2023-02-28T02:57:36;3.27;;;1.50;;
13349;SDS011;6744;53.190;6.576;2023-02-28T03:00:05;2.87;;;1.63;;
13349;SDS011;6744;53.190;6.576;2023-02-28T03:02:35;2.43;;;1.70;;
13349;SDS011;6744;53.190;6.576;2023-02-28T03:05:07;1.83;;;1.50;;
13349;SDS011;6744;53.190;6.576;2023-02-28T03:07:38;2.87;;;1.60;;
13349;SDS011;6744;53.190;6.576;2023-02-28T03:10:25;2.23;;;1.67;;
13349;SDS011;6744;53.190;6.576;2023-02-28T03:12:54;3.73;;;1.70;;
13349;SDS011;6744;53.190;6.576;2023-02-28T03:15:33;2.87;;;1.90;;
13349;SDS011;6744;53.190;6.576;2023-02-28T03:18:44;1.93;;;1.43;;
13349;SDS011;6744;53.190;6.576;2023-02-28T03:22:06;2.27;;;1.87;;
13349;SDS011;6744;53.190;6.576;2023-02-28T03:27:11;3.63;;;2.23;;
13349;SDS011;6744;53.190;6.576;2023-02-28T03:29:43;3.63;;;2.03;;
13349;SDS011;6744;53.190;6.576;2023-02-28T03:34:56;3.13;;;2.37;;
13349;SDS011;6744;53.190;6.576;2023-02-28T03:37:24;2.43;;;2.23;;
13349;SDS011;6744;53.190;6.576;2023-02-28T03:39:53;3.33;;;2.30;;
13349;SDS011;6744;53.190;6.576;2023-02-28T03:42:23;2.40;;;2.20;;
13349;SDS011;6744;53.190;6.576;2023-02-28T03:44:52;3.30;;;2.40;;
13349;SDS011;6744;53.190;6.576;2023-02-28T03:47:25;3.10;;;2.70;;
13349;SDS011;6744;53.190;6.576;2023-02-28T03:49:54;3.87;;;2.80;;
13349;SDS011;6744;53.190;6.576;2023-02-28T03:52:25;3.27;;;2.63;;
13349;SDS011;6744;53.190;6.576;2023-02-28T03:54:53;2.90;;;2.50;;
13349;SDS011;6744;53.190;6.576;2023-02-28T03:57:27;3.30;;;2.50;;
13349;SDS011;6744;53.190;6.576;2023-02-28T04:00:02;3.80;;;2.73;;
13349;SDS011;6744;53.190;6.576;2023-02-28T04:02:31;3.97;;;3.07;;
13349;SDS011;6744;53.190;6.576;2023-02-28T04:04:57;4.60;;;2.60;;
13349;SDS011;6744;53.190;6.576;2023-02-28T04:07:23;3.37;;;2.90;;
13349;SDS011;6744;53.190;6.576;2023-02-28T04:09:49;4.27;;;3.07;;
13349;SDS011;6744;53.190;6.576;2023-02-28T04:12:14;3.10;;;2.80;;
13349;SDS011;6744;53.190;6.576;2023-02-28T04:14:39;3.03;;;2.80;;
13349;SDS011;6744;53.190;6.576;2023-02-28T04:17:05;3.47;;;2.90;;
13349;SDS011;6744;53.190;6.576;2023-02-28T04:19:30;3.87;;;3.10;;
13349;SDS011;6744;53.190;6.576;2023-02-28T04:21:55;3.60;;;2.93;;
13349;SDS011;6744;53.190;6.576;2023-02-28T04:24:22;3.37;;;2.70;;
13349;SDS011;6744;53.190;6.576;2023-02-28T04:26:50;4.00;;;3.20;;
13349;SDS011;6744;53.190;6.576;2023-02-28T04:31:58;3.10;;;2.90;;
13349;SDS011;6744;53.190;6.576;2023-02-28T04:34:25;3.40;;;3.00;;
13349;SDS011;6744;53.190;6.576;2023-02-28T04:36:54;2.90;;;2.60;;
13349;SDS011;6744;53.190;6.576;2023-02-28T04:39:21;3.10;;;2.80;;
13349;SDS011;6744;53.190;6.576;2023-02-28T04:41:47;3.10;;;2.80;;
13349;SDS011;6744;53.190;6.576;2023-02-28T04:44:12;3.67;;;2.87;;
13349;SDS011;6744;53.190;6.576;2023-02-28T04:46:38;4.40;;;3.30;;
13349;SDS011;6744;53.190;6.576;2023-02-28T04:49:03;3.77;;;3.20;;
13349;SDS011;6744;53.190;6.576;2023-02-28T04:51:28;3.10;;;2.80;;
13349;SDS011;6744;53.190;6.576;2023-02-28T04:53:54;3.17;;;2.60;;
13349;SDS011;6744;53.190;6.576;2023-02-28T04:56:20;2.80;;;2.57;;
13349;SDS011;6744;53.190;6.576;2023-02-28T04:58:46;3.17;;;2.80;;
13349;SDS011;6744;53.190;6.576;2023-02-28T05:03:46;3.27;;;2.97;;
13349;SDS011;6744;53.190;6.576;2023-02-28T05:06:12;3.23;;;2.83;;
13349;SDS011;6744;53.190;6.576;2023-02-28T05:08:38;2.53;;;2.33;;
13349;SDS011;6744;53.190;6.576;2023-02-28T05:11:03;2.93;;;2.73;;
13349;SDS011;6744;53.190;6.576;2023-02-28T05:13:30;3.00;;;2.80;;
13349;SDS011;6744;53.190;6.576;2023-02-28T05:15:56;3.23;;;2.90;;
13349;SDS011;6744;53.190;6.576;2023-02-28T05:18:21;2.80;;;2.60;;
13349;SDS011;6744;53.190;6.576;2023-02-28T05:20:46;2.63;;;2.43;;
13349;SDS011;6744;53.190;6.576;2023-02-28T05:23:12;3.53;;;3.23;;
13349;SDS011;6744;53.190;6.576;2023-02-28T05:25:38;3.60;;;3.13;;
13349;SDS011;6744;53.190;6.576;2023-02-28T05:28:04;3.93;;;3.27;;
13349;SDS011;6744;53.190;6.576;2023-02-28T05:30:29;3.20;;;2.90;;
13349;SDS011;6744;53.190;6.576;2023-02-28T05:32:56;3.03;;;2.63;;
13349;SDS011;6744;53.190;6.576;2023-02-28T05:35:22;4.40;;;2.87;;
13349;SDS011;6744;53.190;6.576;2023-02-28T05:37:47;3.17;;;2.87;;
13349;SDS011;6744;53.190;6.576;2023-02-28T05:40:13;3.37;;;2.90;;
13349;SDS011;6744;53.190;6.576;2023-02-28T05:42:38;3.83;;;3.10;;
13349;SDS011;6744;53.190;6.576;2023-02-28T05:45:04;3.17;;;2.83;;
13349;SDS011;6744;53.190;6.576;2023-02-28T05:47:31;3.00;;;2.80;;
13349;SDS011;6744;53.190;6.576;2023-02-28T05:49:57;3.00;;;2.70;;
13349;SDS011;6744;53.190;6.576;2023-02-28T05:52:22;3.27;;;2.87;;
13349;SDS011;6744;53.190;6.576;2023-02-28T05:54:48;3.47;;;3.10;;
13349;SDS011;6744;53.190;6.576;2023-02-28T05:57:13;3.17;;;2.87;;
13349;SDS011;6744;53.190;6.576;2023-02-28T05:59:39;3.60;;;3.30;;
13349;SDS011;6744;53.190;6.576;2023-02-28T06:02:05;3.57;;;3.27;;
13349;SDS011;6744;53.190;6.576;2023-02-28T06:04:31;3.30;;;3.00;;
13349;SDS011;6744;53.190;6.576;2023-02-28T06:06:56;3.13;;;2.90;;
13349;SDS011;6744;53.190;6.576;2023-02-28T06:09:22;3.60;;;3.13;;
13349;SDS011;6744;53.190;6.576;2023-02-28T06:11:48;3.93;;;3.60;;
13349;SDS011;6744;53.190;6.576;2023-02-28T06:14:17;3.77;;;3.47;;
13349;SDS011;6744;53.190;6.576;2023-02-28T06:16:43;3.60;;;3.30;;
13349;SDS011;6744;53.190;6.576;2023-02-28T06:19:09;3.83;;;3.07;;
13349;SDS011;6744;53.190;6.576;2023-02-28T06:21:35;3.50;;;3.20;;
13349;SDS011;6744;53.190;6.576;2023-02-28T06:24:00;3.93;;;3.50;;
13349;SDS011;6744;53.190;6.576;2023-02-28T06:26:26;3.90;;;3.60;;
13349;SDS011;6744;53.190;6.576;2023-02-28T06:28:52;4.00;;;3.53;;
13349;SDS011;6744;53.190;6.576;2023-02-28T06:31:17;3.97;;;3.60;;
13349;SDS011;6744;53.190;6.576;2023-02-28T06:33:44;4.20;;;3.80;;
13349;SDS011;6744;53.190;6.576;2023-02-28T06:36:11;4.37;;;3.80;;
13349;SDS011;6744;53.190;6.576;2023-02-28T06:38:37;4.40;;;3.97;;
13349;SDS011;6744;53.190;6.576;2023-02-28T06:41:03;4.27;;;3.90;;
13349;SDS011;6744;53.190;6.576;2023-02-28T06:43:30;4.03;;;3.63;;
13349;SDS011;6744;53.190;6.576;2023-02-28T06:45:58;4.50;;;4.10;;
13349;SDS011;6744;53.190;6.576;2023-02-28T06:48:25;5.37;;;4.30;;
13349;SDS011;6744;53.190;6.576;2023-02-28T06:50:51;4.70;;;4.30;;
13349;SDS011;6744;53.190;6.576;2023-02-28T06:53:16;4.70;;;4.30;;
13349;SDS011;6744;53.190;6.576;2023-02-28T06:55:42;4.43;;;4.03;;
13349;SDS011;6744;53.190;6.576;2023-02-28T06:58:07;4.67;;;4.27;;
13349;SDS011;6744;53.190;6.576;2023-02-28T07:00:40;4.50;;;4.10;;
13349;SDS011;6744;53.190;6.576;2023-02-28T07:03:07;5.10;;;4.60;;
13349;SDS011;6744;53.190;6.576;2023-02-28T07:05:34;4.90;;;4.40;;
13349;SDS011;6744;53.190;6.576;2023-02-28T07:07:59;4.40;;;4.00;;
13349;SDS011;6744;53.190;6.576;2023-02-28T07:10:25;5.10;;;4.60;;
13349;SDS011;6744;53.190;6.576;2023-02-28T07:12:50;4.67;;;4.27;;
13349;SDS011;6744;53.190;6.576;2023-02-28T07:15:16;4.40;;;4.00;;
13349;SDS011;6744;53.190;6.576;2023-02-28T07:17:41;4.87;;;4.47;;
13349;SDS011;6744;53.190;6.576;2023-02-28T07:20:07;5.10;;;4.60;;
13349;SDS011;6744;53.190;6.576;2023-02-28T07:22:33;6.17;;;5.57;;
13349;SDS011;6744;53.190;6.576;2023-02-28T07:24:58;6.63;;;5.50;;
13349;SDS011;6744;53.190;6.576;2023-02-28T07:27:23;6.37;;;5.77;;
13349;SDS011;6744;53.190;6.576;2023-02-28T07:29:50;6.80;;;6.20;;
13349;SDS011;6744;53.190;6.576;2023-02-28T07:32:16;6.97;;;6.30;;
13349;SDS011;6744;53.190;6.576;2023-02-28T07:34:41;7.83;;;5.77;;
13349;SDS011;6744;53.190;6.576;2023-02-28T07:37:06;6.13;;;5.33;;
13349;SDS011;6744;53.190;6.576;2023-02-28T07:39:32;7.20;;;5.50;;
13349;SDS011;6744;53.190;6.576;2023-02-28T07:41:57;6.33;;;5.73;;
13349;SDS011;6744;53.190;6.576;2023-02-28T07:44:24;6.10;;;5.50;;
13349;SDS011;6744;53.190;6.576;2023-02-28T07:46:50;6.47;;;5.77;;
13349;SDS011;6744;53.190;6.576;2023-02-28T07:49:15;6.20;;;5.40;;
13349;SDS011;6744;53.190;6.576;2023-02-28T07:51:41;5.77;;;5.17;;
13349;SDS011;6744;53.190;6.576;2023-02-28T07:54:06;5.80;;;5.13;;
13349;SDS011;6744;53.190;6.576;2023-02-28T07:56:32;5.80;;;5.30;;
13349;SDS011;6744;53.190;6.576;2023-02-28T07:58:58;6.33;;;5.40;;
13349;SDS011;6744;53.190;6.576;2023-02-28T08:01:23;6.53;;;5.60;;
13349;SDS011;6744;53.190;6.576;2023-02-28T08:03:48;6.33;;;5.73;;
13349;SDS011;6744;53.190;6.576;2023-02-28T08:06:19;5.77;;;5.27;;
13349;SDS011;6744;53.190;6.576;2023-02-28T08:08:46;6.20;;;5.60;;
13349;SDS011;6744;53.190;6.576;2023-02-28T08:11:11;6.53;;;5.93;;
13349;SDS011;6744;53.190;6.576;2023-02-28T08:13:36;6.50;;;5.90;;
13349;SDS011;6744;53.190;6.576;2023-02-28T08:16:02;6.00;;;5.40;;
13349;SDS011;6744;53.190;6.576;2023-02-28T08:18:27;6.30;;;5.57;;
13349;SDS011;6744;53.190;6.576;2023-02-28T08:20:53;6.63;;;5.80;;
13349;SDS011;6744;53.190;6.576;2023-02-28T08:23:18;6.80;;;5.97;;
13349;SDS011;6744;53.190;6.576;2023-02-28T08:25:44;5.70;;;5.10;;
13349;SDS011;6744;53.190;6.576;2023-02-28T08:28:09;6.43;;;5.30;;
13349;SDS011;6744;53.190;6.576;2023-02-28T08:30:35;6.30;;;5.70;;
13349;SDS011;6744;53.190;6.576;2023-02-28T08:33:00;5.60;;;5.10;;
13349;SDS011;6744;53.190;6.576;2023-02-28T08:35:26;5.90;;;5.33;;
13349;SDS011;6744;53.190;6.576;2023-02-28T08:37:52;5.90;;;5.30;;
13349;SDS011;6744;53.190;6.576;2023-02-28T08:40:17;5.67;;;5.17;;
13349;SDS011;6744;53.190;6.576;2023-02-28T08:42:45;5.57;;;4.97;;
13349;SDS011;6744;53.190;6.576;2023-02-28T08:45:11;6.47;;;5.53;;
13349;SDS011;6744;53.190;6.576;2023-02-28T08:47:37;7.93;;;7.13;;
13349;SDS011;6744;53.190;6.576;2023-02-28T08:50:03;6.57;;;5.97;;
13349;SDS011;6744;53.190;6.576;2023-02-28T08:52:28;6.50;;;5.83;;
13349;SDS011;6744;53.190;6.576;2023-02-28T08:54:54;7.03;;;6.33;;
13349;SDS011;6744;53.190;6.576;2023-02-28T08:57:19;7.90;;;6.10;;
13349;SDS011;6744;53.190;6.576;2023-02-28T08:59:44;6.40;;;5.57;;
13349;SDS011;6744;53.190;6.576;2023-02-28T09:02:12;8.03;;;6.10;;
13349;SDS011;6744;53.190;6.576;2023-02-28T09:04:38;6.90;;;6.23;;
13349;SDS011;6744;53.190;6.576;2023-02-28T09:07:03;8.10;;;6.27;;
13349;SDS011;6744;53.190;6.576;2023-02-28T09:09:29;7.50;;;6.80;;
13349;SDS011;6744;53.190;6.576;2023-02-28T09:11:55;7.37;;;6.10;;
13349;SDS011;6744;53.190;6.576;2023-02-28T09:14:21;6.37;;;5.70;;
13349;SDS011;6744;53.190;6.576;2023-02-28T09:16:46;6.70;;;6.10;;
13349;SDS011;6744;53.190;6.576;2023-02-28T09:19:12;6.37;;;5.77;;
13349;SDS011;6744;53.190;6.576;2023-02-28T09:21:37;6.17;;;5.57;;
13349;SDS011;6744;53.190;6.576;2023-02-28T09:24:03;6.80;;;5.93;;
13349;SDS011;6744;53.190;6.576;2023-02-28T09:26:28;6.93;;;6.23;;
13349;SDS011;6744;53.190;6.576;2023-02-28T09:28:54;7.13;;;6.10;;
13349;SDS011;6744;53.190;6.576;2023-02-28T09:31:23;6.40;;;5.80;;
13349;SDS011;6744;53.190;6.576;2023-02-28T09:33:50;6.67;;;6.00;;
13349;SDS011;6744;53.190;6.576;2023-02-28T09:36:17;6.73;;;6.13;;
13349;SDS011;6744;53.190;6.576;2023-02-28T09:38:42;6.30;;;5.70;;
13349;SDS011;6744;53.190;6.576;2023-02-28T09:41:12;6.40;;;5.80;;
13349;SDS011;6744;53.190;6.576;2023-02-28T09:43:40;6.60;;;5.97;;
13349;SDS011;6744;53.190;6.576;2023-02-28T09:46:20;5.30;;;4.80;;
13349;SDS011;6744;53.190;6.576;2023-02-28T09:49:00;6.10;;;5.50;;
13349;SDS011;6744;53.190;6.576;2023-02-28T09:51:48;6.10;;;5.50;;
13349;SDS011;6744;53.190;6.576;2023-02-28T09:54:17;6.10;;;5.50;;
13349;SDS011;6744;53.190;6.576;2023-02-28T09:56:55;5.57;;;5.00;;
13349;SDS011;6744;53.190;6.576;2023-02-28T10:05:24;5.53;;;5.03;;
13349;SDS011;6744;53.190;6.576;2023-02-28T10:07:58;5.63;;;5.13;;
13349;SDS011;6744;53.190;6.576;2023-02-28T10:10:39;5.37;;;4.87;;
13349;SDS011;6744;53.190;6.576;2023-02-28T10:13:06;5.80;;;5.30;;
13349;SDS011;6744;53.190;6.576;2023-02-28T10:15:46;5.53;;;5.07;;
13349;SDS011;6744;53.190;6.576;2023-02-28T10:18:14;6.57;;;5.30;;
13349;SDS011;6744;53.190;6.576;2023-02-28T10:20:41;5.73;;;5.13;;
13349;SDS011;6744;53.190;6.576;2023-02-28T10:23:13;6.10;;;5.07;;
13349;SDS011;6744;53.190;6.576;2023-02-28T10:25:43;5.73;;;5.23;;
13349;SDS011;6744;53.190;6.576;2023-02-28T10:28:13;5.00;;;4.60;;
13349;SDS011;6744;53.190;6.576;2023-02-28T10:30:44;4.90;;;4.40;;
13349;SDS011;6744;53.190;6.576;2023-02-28T10:33:16;5.73;;;5.23;;
13349;SDS011;6744;53.190;6.576;2023-02-28T10:35:45;5.57;;;5.00;;
13349;SDS011;6744;53.190;6.576;2023-02-28T10:38:18;5.13;;;4.63;;
13349;SDS011;6744;53.190;6.576;2023-02-28T10:40:48;5.20;;;4.70;;
13349;SDS011;6744;53.190;6.576;2023-02-28T10:45:38;5.57;;;5.07;;
13349;SDS011;6744;53.190;6.576;2023-02-28T10:55:57;5.20;;;4.70;;
13349;SDS011;6744;53.190;6.576;2023-02-28T10:58:48;5.13;;;4.50;;
13349;SDS011;6744;53.190;6.576;2023-02-28T11:01:41;5.37;;;4.87;;
13349;SDS011;6744;53.190;6.576;2023-02-28T11:06:58;5.50;;;4.50;;
13349;SDS011;6744;53.190;6.576;2023-02-28T11:09:28;4.83;;;4.37;;
13349;SDS011;6744;53.190;6.576;2023-02-28T11:11:56;5.43;;;4.43;;
13349;SDS011;6744;53.190;6.576;2023-02-28T11:14:22;4.80;;;4.37;;
13349;SDS011;6744;53.190;6.576;2023-02-28T11:16:49;4.90;;;4.40;;
13349;SDS011;6744;53.190;6.576;2023-02-28T11:19:40;5.23;;;4.73;;
13349;SDS011;6744;53.190;6.576;2023-02-28T11:22:09;5.13;;;4.63;;
13349;SDS011;6744;53.190;6.576;2023-02-28T11:24:45;4.50;;;4.10;;
13349;SDS011;6744;53.190;6.576;2023-02-28T11:30:00;4.30;;;3.90;;
13349;SDS011;6744;53.190;6.576;2023-02-28T11:32:26;4.73;;;4.27;;
13349;SDS011;6744;53.190;6.576;2023-02-28T11:37:48;4.67;;;3.93;;
13349;SDS011;6744;53.190;6.576;2023-02-28T11:40:16;4.93;;;4.13;;
13349;SDS011;6744;53.190;6.576;2023-02-28T11:46:05;5.07;;;4.57;;
13349;SDS011;6744;53.190;6.576;2023-02-28T11:51:28;3.80;;;3.50;;
13349;SDS011;6744;53.190;6.576;2023-02-28T11:56:54;4.70;;;4.10;;
13349;SDS011;6744;53.190;6.576;2023-02-28T12:02:20;3.73;;;3.37;;
13349;SDS011;6744;53.190;6.576;2023-02-28T12:07:48;4.30;;;3.90;;
13349;SDS011;6744;53.190;6.576;2023-02-28T12:10:31;5.03;;;3.60;;
13349;SDS011;6744;53.190;6.576;2023-02-28T12:13:17;3.90;;;3.37;;
13349;SDS011;6744;53.190;6.576;2023-02-28T12:21:24;3.10;;;2.80;;
13349;SDS011;6744;53.190;6.576;2023-02-28T12:24:18;4.10;;;3.63;;
13349;SDS011;6744;53.190;6.576;2023-02-28T12:26:49;3.67;;;3.30;;
13349;SDS011;6744;53.190;6.576;2023-02-28T12:29:23;3.90;;;3.50;;
13349;SDS011;6744;53.190;6.576;2023-02-28T12:32:09;4.27;;;3.27;;
13349;SDS011;6744;53.190;6.576;2023-02-28T12:34:55;3.70;;;3.40;;
13349;SDS011;6744;53.190;6.576;2023-02-28T12:37:37;5.03;;;3.53;;
13349;SDS011;6744;53.190;6.576;2023-02-28T12:40:31;4.50;;;3.60;;
13349;SDS011;6744;53.190;6.576;2023-02-28T12:43:12;3.60;;;3.30;;
13349;SDS011;6744;53.190;6.576;2023-02-28T12:45:46;3.57;;;2.97;;
13349;SDS011;6744;53.190;6.576;2023-02-28T12:48:17;3.77;;;3.10;;
13349;SDS011;6744;53.190;6.576;2023-02-28T12:51:05;3.50;;;3.20;;
13349;SDS011;6744;53.190;6.576;2023-02-28T12:53:48;3.70;;;3.27;;
13349;SDS011;6744;53.190;6.576;2023-02-28T12:56:27;3.70;;;3.40;;
13349;SDS011;6744;53.190;6.576;2023-02-28T12:59:04;4.73;;;3.13;;
13349;SDS011;6744;53.190;6.576;2023-02-28T13:09:38;4.00;;;3.40;;
13349;SDS011;6744;53.190;6.576;2023-02-28T13:12:12;4.40;;;3.40;;
13349;SDS011;6744;53.190;6.576;2023-02-28T13:14:38;4.20;;;3.77;;
13349;SDS011;6744;53.190;6.576;2023-02-28T13:19:38;3.63;;;3.10;;
13349;SDS011;6744;53.190;6.576;2023-02-28T13:22:09;3.63;;;3.33;;
13349;SDS011;6744;53.190;6.576;2023-02-28T13:25:00;3.63;;;3.33;;
13349;SDS011;6744;53.190;6.576;2023-02-28T13:27:43;4.03;;;3.17;;
13349;SDS011;6744;53.190;6.576;2023-02-28T13:30:59;4.03;;;3.40;;
13349;SDS011;6744;53.190;6.576;2023-02-28T13:38:34;3.90;;;3.53;;
13349;SDS011;6744;53.190;6.576;2023-02-28T13:46:25;3.43;;;3.13;;
13349;SDS011;6744;53.190;6.576;2023-02-28T13:48:51;4.23;;;3.83;;
13349;SDS011;6744;53.190;6.576;2023-02-28T13:51:26;4.27;;;3.70;;
13349;SDS011;6744;53.190;6.576;2023-02-28T13:56:52;4.10;;;3.70;;
13349;SDS011;6744;53.190;6.576;2023-02-28T14:07:44;3.90;;;3.47;;
13349;SDS011;6744;53.190;6.576;2023-02-28T14:10:20;4.40;;;4.00;;
13349;SDS011;6744;53.190;6.576;2023-02-28T14:17:58;4.10;;;3.57;;
13349;SDS011;6744;53.190;6.576;2023-02-28T14:20:26;3.97;;;3.50;;
13349;SDS011;6744;53.190;6.576;2023-02-28T14:23:13;4.33;;;3.93;;
13349;SDS011;6744;53.190;6.576;2023-02-28T14:28:33;4.00;;;3.70;;
13349;SDS011;6744;53.190;6.576;2023-02-28T14:31:29;4.23;;;3.83;;
13349;SDS011;6744;53.190;6.576;2023-02-28T14:34:43;4.03;;;3.67;;
13349;SDS011;6744;53.190;6.576;2023-02-28T14:36:58;3.93;;;3.53;;
13349;SDS011;6744;53.190;6.576;2023-02-28T14:39:25;4.43;;;4.03;;
13349;SDS011;6744;53.190;6.576;2023-02-28T14:41:55;4.93;;;4.27;;
13349;SDS011;6744;53.190;6.576;2023-02-28T14:44:24;4.40;;;4.00;;
13349;SDS011;6744;53.190;6.576;2023-02-28T14:46:52;3.90;;;3.60;;
13349;SDS011;6744;53.190;6.576;2023-02-28T14:52:02;4.83;;;4.43;;
13349;SDS011;6744;53.190;6.576;2023-02-28T14:54:31;4.60;;;4.00;;
13349;SDS011;6744;53.190;6.576;2023-02-28T14:56:56;4.20;;;3.80;;
13349;SDS011;6744;53.190;6.576;2023-02-28T14:59:29;4.73;;;4.30;;
13349;SDS011;6744;53.190;6.576;2023-02-28T15:04:41;4.40;;;4.00;;
13349;SDS011;6744;53.190;6.576;2023-02-28T15:07:13;4.63;;;3.90;;
13349;SDS011;6744;53.190;6.576;2023-02-28T15:09:39;4.50;;;4.03;;
13349;SDS011;6744;53.190;6.576;2023-02-28T15:12:05;4.33;;;3.93;;
13349;SDS011;6744;53.190;6.576;2023-02-28T15:14:31;4.30;;;3.90;;
13349;SDS011;6744;53.190;6.576;2023-02-28T15:16:58;5.20;;;3.87;;
13349;SDS011;6744;53.190;6.576;2023-02-28T15:22:00;4.00;;;3.60;;
13349;SDS011;6744;53.190;6.576;2023-02-28T15:24:44;4.37;;;3.97;;
13349;SDS011;6744;53.190;6.576;2023-02-28T15:27:14;4.40;;;4.00;;
13349;SDS011;6744;53.190;6.576;2023-02-28T15:29:48;4.90;;;4.37;;
13349;SDS011;6744;53.190;6.576;2023-02-28T15:34:55;4.77;;;4.20;;
13349;SDS011;6744;53.190;6.576;2023-02-28T15:38:21;5.37;;;4.03;;
13349;SDS011;6744;53.190;6.576;2023-02-28T15:40:29;4.20;;;3.90;;
13349;SDS011;6744;53.190;6.576;2023-02-28T15:42:59;5.33;;;4.60;;
13349;SDS011;6744;53.190;6.576;2023-02-28T15:48:24;5.00;;;4.53;;
13349;SDS011;6744;53.190;6.576;2023-02-28T15:50:57;5.20;;;4.70;;
13349;SDS011;6744;53.190;6.576;2023-02-28T15:53:28;5.50;;;4.90;;
13349;SDS011;6744;53.190;6.576;2023-02-28T15:56:04;6.77;;;5.77;;
13349;SDS011;6744;53.190;6.576;2023-02-28T15:58:31;5.97;;;5.40;;
13349;SDS011;6744;53.190;6.576;2023-02-28T16:01:39;6.33;;;5.60;;
13349;SDS011;6744;53.190;6.576;2023-02-28T16:03:50;5.50;;;5.00;;
13349;SDS011;6744;53.190;6.576;2023-02-28T16:08:48;8.60;;;6.00;;
13349;SDS011;6744;53.190;6.576;2023-02-28T16:11:16;7.20;;;5.80;;
13349;SDS011;6744;53.190;6.576;2023-02-28T16:13:41;6.70;;;5.80;;
13349;SDS011;6744;53.190;6.576;2023-02-28T16:16:07;5.77;;;5.17;;
13349;SDS011;6744;53.190;6.576;2023-02-28T16:18:32;7.07;;;5.27;;
13349;SDS011;6744;53.190;6.576;2023-02-28T16:20:57;6.03;;;5.43;;
13349;SDS011;6744;53.190;6.576;2023-02-28T16:23:23;7.33;;;5.90;;
13349;SDS011;6744;53.190;6.576;2023-02-28T16:25:48;6.63;;;5.40;;
13349;SDS011;6744;53.190;6.576;2023-02-28T16:28:30;5.77;;;5.00;;
13349;SDS011;6744;53.190;6.576;2023-02-28T16:31:02;6.13;;;5.50;;
13349;SDS011;6744;53.190;6.576;2023-02-28T16:33:28;5.60;;;5.10;;
13349;SDS011;6744;53.190;6.576;2023-02-28T16:35:54;7.13;;;5.10;;
13349;SDS011;6744;53.190;6.576;2023-02-28T16:38:20;5.87;;;5.37;;
13349;SDS011;6744;53.190;6.576;2023-02-28T16:40:46;9.53;;;5.37;;
13349;SDS011;6744;53.190;6.576;2023-02-28T16:43:15;6.00;;;5.40;;
13349;SDS011;6744;53.190;6.576;2023-02-28T16:45:42;6.40;;;5.30;;
13349;SDS011;6744;53.190;6.576;2023-02-28T16:48:11;5.93;;;5.27;;
13349;SDS011;6744;53.190;6.576;2023-02-28T16:50:38;5.53;;;5.03;;
13349;SDS011;6744;53.190;6.576;2023-02-28T16:53:03;5.90;;;5.27;;
13349;SDS011;6744;53.190;6.576;2023-02-28T16:55:29;6.00;;;5.40;;
13349;SDS011;6744;53.190;6.576;2023-02-28T16:57:55;5.03;;;4.53;;
13349;SDS011;6744;53.190;6.576;2023-02-28T17:00:22;5.50;;;4.93;;
13349;SDS011;6744;53.190;6.576;2023-02-28T17:02:48;5.40;;;4.90;;
13349;SDS011;6744;53.190;6.576;2023-02-28T17:05:13;5.37;;;4.87;;
13349;SDS011;6744;53.190;6.576;2023-02-28T17:07:40;6.00;;;5.40;;
13349;SDS011;6744;53.190;6.576;2023-02-28T17:10:13;5.10;;;4.60;;
13349;SDS011;6744;53.190;6.576;2023-02-28T17:12:49;6.73;;;5.20;;
13349;SDS011;6744;53.190;6.576;2023-02-28T17:15:15;5.50;;;4.60;;
13349;SDS011;6744;53.190;6.576;2023-02-28T17:17:42;6.63;;;5.97;;
13349;SDS011;6744;53.190;6.576;2023-02-28T17:20:21;5.67;;;4.73;;
13349;SDS011;6744;53.190;6.576;2023-02-28T17:22:51;5.23;;;4.83;;
13349;SDS011;6744;53.190;6.576;2023-02-28T17:25:17;6.53;;;5.10;;